Time;durP1;ratioP1;P1;durP2;ratioP2;P2;SDS_P1;SDS_P2;PMS_P1;PMS_P2;Temp;Humidity;BMP_temperature;BMP_pressure;BME280_temperature;BME280_humidity;BME280_pressure;Samples;Min_cycle;Max_cycle;Signal;HPM_P1;HPM_P2
2023/05/12 00:00:22;;;;;;;14.07;8.45;;;;;;;;;;5092774;28;20062;-70
2023/05/12 00:02:48;;;;;;;14.32;6.65;;;;;;;;;;5092609;28;20039;-70
2023/05/12 00:05:14;;;;;;;13.35;5.63;;;;;;;;;;5092720;28;20040;-70
2023/05/12 00:07:40;;;;;;;12.55;5.18;;;;;;;;;;5092819;28;20048;-70
2023/05/12 00:10:06;;;;;;;10.20;4.68;;;;;;;;;;5126876;27;20046;-70
2023/05/12 00:12:32;;;;;;;8.63;4.80;;;;;;;;;;5092443;28;20043;-69
2023/05/12 00:14:58;;;;;;;6.85;3.83;;;;;;;;;;5092563;28;20036;-68
2023/05/12 00:17:26;;;;;;;7.00;4.20;;;;;;;;;;5092389;28;20044;-69
2023/05/12 00:19:52;;;;;;;7.63;3.67;;;;;;;;;;5092397;28;20036;-69
2023/05/12 00:22:18;;;;;;;7.15;3.45;;;;;;;;;;5126403;27;20593;-69
2023/05/12 00:24:44;;;;;;;7.53;3.53;;;;;;;;;;5092734;28;20040;-68
2023/05/12 00:27:12;;;;;;;10.80;3.80;;;;;;;;;;5092525;28;20134;-68
2023/05/12 00:29:38;;;;;;;7.93;4.03;;;;;;;;;;5109392;27;20136;-69
2023/05/12 00:32:04;;;;;;;9.02;3.35;;;;;;;;;;5092070;28;20510;-69
2023/05/12 00:34:30;;;;;;;15.38;5.55;;;;;;;;;;5075641;28;20094;-69
2023/05/12 00:36:56;;;;;;;8.88;4.50;;;;;;;;;;5092451;28;20039;-68
2023/05/12 00:39:23;;;;;;;8.43;3.85;;;;;;;;;;5092272;28;20040;-69
2023/05/12 00:41:55;;;;;;;7.88;4.63;;;;;;;;;;5092276;28;20048;-68
2023/05/12 00:44:21;;;;;;;10.80;5.05;;;;;;;;;;5092061;28;20127;-69
2023/05/12 00:46:48;;;;;;;13.43;4.60;;;;;;;;;;5092064;28;20436;-68
2023/05/12 00:49:14;;;;;;;8.40;4.88;;;;;;;;;;5092034;28;20495;-69
2023/05/12 00:51:40;;;;;;;12.57;5.60;;;;;;;;;;5125956;28;20498;-69
2023/05/12 00:54:06;;;;;;;9.95;5.90;;;;;;;;;;5108902;28;20048;-68
2023/05/12 00:56:38;;;;;;;15.13;5.85;;;;;;;;;;5092013;28;20044;-69
2023/05/12 00:59:04;;;;;;;14.47;6.40;;;;;;;;;;5092286;28;20037;-69
2023/05/12 01:01:31;;;;;;;12.45;6.72;;;;;;;;;;5092159;28;20270;-69
2023/05/12 01:03:57;;;;;;;14.63;6.55;;;;;;;;;;5092243;28;20089;-69
2023/05/12 01:06:34;;;;;;;12.35;6.88;;;10.80;99.90;;;;;;5109199;28;20047;-69
2023/05/12 01:09:00;;;;;;;24.85;8.60;;;;;;;;;;5092130;28;20097;-69
2023/05/12 01:11:26;;;;;;;12.90;7.82;;;;;;;;;;5092106;28;20444;-69
2023/05/12 01:13:52;;;;;;;18.85;9.57;;;;;;;;;;5093597;28;20181;-70
2023/05/12 01:16:22;;;;;;;16.88;9.52;;;;;;;;;;5096330;28;20063;-70
2023/05/12 01:18:52;;;;;;;21.95;9.40;;;;;;;;;;5095752;28;20036;-69
2023/05/12 01:21:18;;;;;;;14.30;9.02;;;11.00;99.90;;;;;;5078698;28;20040;-70
2023/05/12 01:23:50;;;;;;;19.88;9.38;;;10.80;99.90;;;;;;5096041;28;20384;-69
2023/05/12 01:26:16;;;;;;;22.20;10.43;;;;;;;;;;5095877;28;20047;-69
2023/05/12 01:28:42;;;;;;;23.83;10.40;;;;;;;;;;5096042;28;20035;-69
2023/05/12 01:31:08;;;;;;;23.58;10.13;;;;;;;;;;5095552;28;20400;-69
2023/05/12 01:33:35;;;;;;;19.38;10.63;;;;;;;;;;5095529;28;20388;-69
2023/05/12 01:36:01;;;;;;;19.05;10.70;;;;;;;;;;5095496;28;20036;-69
2023/05/12 01:38:27;;;;;;;26.45;12.82;;;;;;;;;;5095548;28;20564;-69
2023/05/12 01:40:53;;;;;;;23.92;12.10;;;;;;;;;;5095573;28;20072;-69
2023/05/12 01:43:19;;;;;;;26.20;13.55;;;;;;;;;;5095438;28;20066;-69
2023/05/12 01:45:45;;;;;;;31.80;13.50;;;;;;;;;;5095702;28;20522;-69
2023/05/12 01:48:11;;;;;;;25.45;13.45;;;;;;;;;;5095738;28;20101;-69
2023/05/12 01:50:37;;;;;;;27.77;14.73;;;;;;;;;;5129672;27;20130;-70
2023/05/12 01:53:03;;;;;;;28.48;14.93;;;;;;;;;;5094959;28;20488;-71
2023/05/12 01:55:29;;;;;;;34.40;15.32;;;;;;;;;;5078620;28;20032;-71
2023/05/12 01:57:55;;;;;;;35.97;18.02;;;;;;;;;;5112432;28;20075;-71
2023/05/12 02:00:22;;;;;;;34.25;16.30;;;;;;;;;;5078281;28;20040;-71
2023/05/12 02:02:48;;;;;;;32.85;16.73;;;;;;;;;;5095297;28;20051;-71
2023/05/12 02:05:14;;;;;;;25.92;14.93;;;;;;;;;;5094852;28;20055;-70
2023/05/12 02:07:41;;;;;;;27.70;14.15;;;;;;;;;;5095081;28;20048;-70
2023/05/12 02:10:08;;;;;;;29.38;14.90;;;;;;;;;;5094805;28;20085;-70
2023/05/12 02:12:34;;;;;;;30.35;13.68;;;;;;;;;;5094724;28;20125;-71
2023/05/12 02:15:00;;;;;;;29.25;14.23;;;;;;;;;;5094818;28;20040;-71
2023/05/12 02:17:27;;;;;;;33.83;16.10;;;;;;;;;;5112258;28;20071;-69
2023/05/12 02:19:53;;;;;;;28.58;16.00;;;;;;;;;;5096008;28;20114;-69
2023/05/12 02:22:19;;;;;;;36.22;16.70;;;;;;;;;;5094946;28;20040;-69
2023/05/12 02:24:45;;;;;;;33.63;16.00;;;;;;;;;;5094126;28;20036;-69
2023/05/12 02:27:12;;;;;;;43.45;16.77;;;;;;;;;;5077840;28;20066;-69
2023/05/12 02:29:38;;;;;;;39.38;16.27;;;;;;;;;;5094757;28;20050;-69
2023/05/12 02:32:04;;;;;;;31.15;14.82;;;;;;;;;;5094510;28;20048;-69
2023/05/12 02:34:31;;;;;;;37.67;18.13;;;;;;;;;;5094437;28;20070;-69
2023/05/12 02:36:57;;;;;;;37.58;17.02;;;;;;;;;;5077833;28;20359;-69
2023/05/12 02:39:23;;;;;;;35.80;16.25;;;;;;;;;;5077765;28;20376;-69
2023/05/12 02:41:49;;;;;;;40.10;16.90;;;;;;;;;;5077647;28;20040;-69
2023/05/12 02:44:16;;;;;;;40.53;18.05;;;;;;;;;;5111456;27;20039;-69
2023/05/12 02:46:42;;;;;;;44.97;18.00;;;;;;;;;;5077726;28;20036;-69
2023/05/12 02:49:08;;;;;;;47.13;18.45;;;;;;;;;;5094345;28;20067;-69
2023/05/12 02:51:40;;;;;;;47.33;18.58;;;12.00;99.90;;;;;;5094244;28;20105;-69
2023/05/12 02:54:06;;;;;;;49.25;19.55;;;;;;;;;;5093850;28;20055;-69
2023/05/12 02:56:32;;;;;;;57.25;20.80;;;;;;;;;;5094585;28;20105;-69
2023/05/12 02:58:58;;;;;;;57.55;22.17;;;;;;;;;;5093889;28;20079;-69
2023/05/12 03:01:24;;;;;;;53.17;23.05;;;;;;;;;;5127940;27;20047;-69
2023/05/12 03:03:50;;;;;;;56.03;21.77;;;;;;;;;;5094096;28;20046;-69
2023/05/12 03:06:16;;;;;;;59.28;22.98;;;;;;;;;;5076948;28;20488;-69
2023/05/12 03:08:42;;;;;;;61.60;23.08;;;;;;;;;;5094093;28;20135;-69
2023/05/12 03:11:08;;;;;;;60.58;24.13;;;;;;;;;;5093690;28;20089;-69
2023/05/12 03:13:34;;;;;;;59.90;23.10;;;;;;;;;;5076697;28;20126;-69
2023/05/12 03:16:00;;;;;;;61.42;23.55;;;;;;;;;;5093630;28;20067;-70
2023/05/12 03:18:30;;;;;;;66.57;24.73;;;;;;;;;;5094837;28;20040;-71
2023/05/12 03:20:56;;;;;;;63.08;23.48;;;;;;;;;;5093644;28;20134;-72
2023/05/12 03:23:22;;;;;;;70.30;23.98;;;;;;;;;;5093762;28;20403;-72
2023/05/12 03:25:48;;;;;;;62.00;23.38;;;;;;;;;;5093695;28;20040;-72
2023/05/12 03:28:14;;;;;;;63.22;23.20;;;;;;;;;;5093478;28;20048;-72
2023/05/12 03:30:40;;;;;;;61.40;24.90;;;;;;;;;;5076571;28;20044;-72
2023/05/12 03:33:07;;;;;;;62.97;24.65;;;;;;;;;;5093441;28;20082;-72
2023/05/12 03:35:33;;;;;;;66.40;25.25;;;;;;;;;;5092988;28;20047;-72
2023/05/12 03:37:59;;;;;;;64.55;25.67;;;;;;;;;;5092653;28;20502;-72
2023/05/12 03:40:25;;;;;;;68.03;25.20;;;;;;;;;;5093420;28;20044;-72
2023/05/12 03:42:51;;;;;;;65.47;26.33;;;;;;;;;;5093009;28;20395;-72
2023/05/12 03:45:17;;;;;;;72.53;26.50;;;;;;;;;;5093286;28;20036;-72
2023/05/12 03:47:44;;;;;;;68.95;27.88;;;;;;;;;;5093309;28;20422;-72
2023/05/12 03:50:10;;;;;;;62.28;25.30;;;;;;;;;;5093263;28;20086;-72
2023/05/12 03:52:37;;;;;;;79.78;28.20;;;;;;;;;;5075836;28;20055;-72
2023/05/12 03:55:06;;;;;;;71.38;25.70;;;11.50;99.90;;;;;;5076060;28;20043;-72
2023/05/12 03:57:35;;;;;;;71.10;26.58;;;;;;;;;;5092856;28;20468;-72
2023/05/12 04:00:01;;;;;;;70.03;27.08;;;;;;;;;;5092779;28;20510;-72
2023/05/12 04:02:27;;;;;;;66.20;26.88;;;;;;;;;;5093128;28;20113;-72
2023/05/12 04:04:53;;;;;;;67.82;26.00;;;;;;;;;;5092788;28;20044;-72
2023/05/12 04:07:19;;;;;;;61.88;24.70;;;;;;;;;;5092686;28;20123;-70
2023/05/12 04:09:45;;;;;;;66.85;24.50;;;;;;;;;;5092652;28;20036;-70
2023/05/12 04:12:11;;;;;;;70.97;25.45;;;;;;;;;;5092780;28;20162;-70
2023/05/12 04:14:38;;;;;;;75.82;25.65;;;;;;;;;;5092831;28;20545;-70
2023/05/12 04:17:04;;;;;;;70.65;26.25;;;;;;;;;;5092930;28;20065;-70
2023/05/12 04:19:30;;;;;;;73.00;26.13;;;;;;;;;;5092539;28;20406;-70
2023/05/12 04:21:56;;;;;;;61.08;24.67;;;;;;;;;;5092806;28;20105;-70
2023/05/12 04:24:24;;;;;;;81.50;26.52;;;;;;;;;;5092731;28;20149;-72
2023/05/12 04:26:50;;;;;;;65.93;25.13;;;;;;;;;;5092614;28;20090;-71
2023/05/12 04:29:16;;;;;;;64.53;24.17;;;;;;;;;;5092346;28;20051;-72
2023/05/12 04:31:42;;;;;;;72.05;25.80;;;;;;;;;;5092377;28;20479;-72
2023/05/12 04:34:08;;;;;;;62.97;25.58;;;;;;;;;;5092664;28;20039;-72
2023/05/12 04:36:34;;;;;;;62.20;25.27;;;11.20;99.90;;;;;;5092216;28;20036;-72
2023/05/12 04:39:00;;;;;;;65.90;24.75;;;;;;;;;;5092584;28;20139;-72
2023/05/12 04:41:26;;;;;;;69.60;26.20;;;;;;;;;;5092169;28;20048;-72
2023/05/12 04:43:52;;;;;;;77.47;26.73;;;;;;;;;;5092581;28;20040;-72
2023/05/12 04:46:18;;;;;;;68.60;25.25;;;11.30;99.90;;;;;;5126112;27;20123;-72
2023/05/12 04:48:44;;;;;;;77.88;25.75;;;11.60;99.90;;;;;;5075282;28;20093;-72
2023/05/12 04:51:10;;;;;;;63.50;25.05;;;;;;;;;;5075528;28;20036;-72
2023/05/12 04:53:36;;;;;;;67.93;25.35;;;;;;;;;;5093236;28;20491;-72
2023/05/12 04:56:02;;;;;;;56.67;25.13;;;;;;;;;;5092065;28;20036;-72
2023/05/12 04:58:28;;;;;;;68.35;25.35;;;;;;;;;;5075233;28;20041;-72
2023/05/12 05:00:54;;;;;;;69.88;26.17;;;;;;;;;;5075392;28;20036;-72
2023/05/12 05:03:21;;;;;;;63.00;24.98;;;;;;;;;;5092013;28;20048;-72
2023/05/12 05:05:47;;;;;;;75.68;26.58;;;;;;;;;;5091989;28;20085;-72
2023/05/12 05:08:14;;;;;;;66.30;26.10;;;;;;;;;;5108995;28;20050;-72
2023/05/12 05:10:40;;;;;;;74.43;26.83;;;;;;;;;;5092146;28;20075;-72
2023/05/12 05:13:06;;;;;;;70.00;28.35;;;;;;;;;;5091839;28;20093;-72
2023/05/12 05:15:32;;;;;;;76.07;27.10;;;;;;;;;;5091728;28;20047;-72
2023/05/12 05:17:58;;;;;;;74.43;28.27;;;;;;;;;;5091931;28;20115;-72
2023/05/12 05:20:25;;;;;;;67.22;27.55;;;;;;;;;;5092037;28;20093;-72
2023/05/12 05:22:51;;;;;;;70.45;28.75;;;;;;;;;;5075298;28;20127;-72
2023/05/12 05:25:17;;;;;;;72.63;27.55;;;;;;;;;;5109177;28;20372;-71
2023/05/12 05:27:43;;;;;;;69.80;27.13;;;;;;;;;;5091734;28;20036;-71
2023/05/12 05:30:09;;;;;;;73.57;27.33;;;;;;;;;;5074705;28;20044;-72
2023/05/12 05:32:36;;;;;;;77.43;28.15;;;;;;;;;;5091582;28;20044;-72
2023/05/12 05:35:02;;;;;;;67.97;28.10;;;;;;;;;;5075165;28;20032;-72
2023/05/12 05:37:28;;;;;;;71.65;27.98;;;;;;;;;;5091469;28;20478;-72
2023/05/12 05:39:54;;;;;;;80.35;28.75;;;13.10;99.90;;;;;;5091625;28;20503;-70
2023/05/12 05:42:20;;;;;;;63.58;28.30;;;;;;;;;;5091471;28;20052;-70
2023/05/12 05:44:46;;;;;;;63.20;27.60;;;;;;;;;;5091826;28;20401;-70
2023/05/12 05:47:12;;;;;;;74.22;26.90;;;;;;;;;;5091628;28;20044;-70
2023/05/12 05:49:38;;;;;;;77.90;27.60;;;;;;;;;;5108765;28;20044;-70
2023/05/12 05:52:04;;;;;;;77.85;28.25;;;11.50;99.90;;;;;;5091698;28;20563;-70
2023/05/12 05:54:30;;;;;;;68.20;27.05;;;;;;;;;;5091126;28;20131;-70
2023/05/12 05:56:58;;;;;;;72.30;26.63;;;;;;;;;;5108658;28;20488;-70
2023/05/12 05:59:24;;;;;;;75.57;28.02;;;;;;;;;;5092153;28;20123;-70
2023/05/12 06:01:50;;;;;;;65.30;27.23;;;12.60;99.90;;;;;;5095490;28;20052;-70
2023/05/12 06:04:16;;;;;;;68.00;27.88;;;;;;;;;;5095064;28;20079;-70
2023/05/12 06:06:42;;;;;;;70.05;28.98;;;;;;;;;;5078465;28;20051;-70
2023/05/12 06:09:11;;;;;;;71.32;27.90;;;;;;;;;;5095025;28;20075;-70
2023/05/12 06:11:38;;;;;;;72.38;28.48;;;;;;;;;;5095173;28;20047;-70
2023/05/12 06:14:04;;;;;;;64.53;27.38;;;;;;;;;;5095290;28;20062;-71
2023/05/12 06:16:30;;;;;;;71.72;28.30;;;;;;;;;;5095274;28;20052;-70
2023/05/12 06:18:57;;;;;;;66.15;27.88;;;;;;;;;;5094776;28;20396;-70
2023/05/12 06:21:23;;;;;;;75.40;27.75;;;;;;;;;;5094716;28;20078;-70
2023/05/12 06:23:50;;;;;;;71.13;27.50;;;;;;;;;;5094811;28;20040;-70
2023/05/12 06:26:16;;;;;;;69.97;27.67;;;;;;;;;;5094508;28;20050;-70
2023/05/12 06:28:42;;;;;;;68.68;29.55;;;;;;;;;;5094701;28;20047;-70
2023/05/12 06:31:08;;;;;;;58.17;26.00;;;;;;;;;;5094838;28;20048;-70
2023/05/12 06:33:35;;;;;;;65.10;27.05;;;;;;;;;;5094461;28;20040;-70
2023/05/12 06:36:01;;;;;;;61.90;27.95;;;;;;;;;;5094435;28;20047;-70
2023/05/12 06:38:27;;;;;;;53.53;25.42;;;;;;;;;;5094537;28;20043;-70
2023/05/12 06:40:53;;;;;;;59.15;26.17;;;;;;;;;;5094432;28;20475;-70
2023/05/12 06:43:19;;;;;;;57.20;26.33;;;;;;;;;;5094406;28;20047;-70
2023/05/12 06:45:45;;;;;;;62.40;27.15;;;;;;;;;;5077682;28;20055;-70
2023/05/12 06:48:11;;;;;;;56.35;25.50;;;;;;;;;;5094313;28;20050;-70
2023/05/12 06:50:37;;;;;;;50.40;26.08;;;;;;;;;;5111492;27;20036;-70
2023/05/12 06:53:05;;;;;;;56.15;25.33;;;;;;;;;;5094091;28;20568;-70
2023/05/12 06:55:31;;;;;;;55.40;26.05;;;;;;;;;;5093991;28;20055;-70
2023/05/12 06:57:57;;;;;;;54.33;24.92;;;;;;;;;;5077827;28;20500;-70
2023/05/12 07:00:23;;;;;;;55.67;26.02;;;;;;;;;;5094008;28;20123;-70
2023/05/12 07:02:49;;;;;;;50.28;24.95;;;;;;;;;;5094322;28;20043;-70
2023/05/12 07:05:17;;;;;;;47.13;25.00;;;;;;;;;;5093864;28;20101;-70
2023/05/12 07:07:43;;;;;;;47.50;24.88;;;;;;;;;;5111274;27;20503;-70
2023/05/12 07:10:09;;;;;;;52.30;24.52;;;;;;;;;;5076776;28;20051;-70
2023/05/12 07:12:37;;;;;;;49.50;24.92;;;;;;;;;;5127703;27;20055;-70
2023/05/12 07:15:03;;;;;;;46.15;23.50;;;;;;;;;;5093895;28;20059;-70
2023/05/12 07:17:29;;;;;;;48.75;24.60;;;14.20;99.90;;;;;;5093485;28;20036;-70
2023/05/12 07:19:55;;;;;;;44.92;23.90;;;;;;;;;;5076639;28;20113;-70
2023/05/12 07:22:22;;;;;;;49.67;24.55;;;;;;;;;;5093668;28;20036;-72
2023/05/12 07:24:48;;;;;;;47.92;24.65;;;;;;;;;;5093419;28;20093;-72
2023/05/12 07:27:14;;;;;;;44.80;24.42;;;;;;;;;;5093373;28;20086;-72
2023/05/12 07:29:40;;;;;;;43.28;24.25;;;;;;;;;;5093428;28;20044;-72
2023/05/12 07:32:06;;;;;;;49.33;25.67;;;;;;;;;;5076743;28;20040;-72
2023/05/12 07:34:33;;;;;;;47.55;25.15;;;;;;;;;;5093401;28;20073;-72
2023/05/12 07:37:01;;;;;;;44.97;25.77;;;;;;;;;;5093327;28;20040;-70
2023/05/12 07:39:29;;;;;;;43.28;25.33;;;;;;;;;;5093146;28;20119;-70
2023/05/12 07:41:55;;;;;;;46.83;26.27;;;;;;;;;;5093469;28;20044;-70
2023/05/12 07:44:21;;;;;;;46.85;25.58;;;;;;;;;;5093465;28;20086;-70
2023/05/12 07:46:47;;;;;;;43.33;24.90;;;;;;;;;;5076273;28;20051;-70
2023/05/12 07:49:13;;;;;;;50.97;25.17;;;;;;;;;;5092992;28;20032;-70
2023/05/12 07:51:40;;;;;;;49.72;25.48;;;;;;;;;;5092672;28;20108;-70
2023/05/12 07:54:06;;;;;;;42.28;24.60;;;15.50;99.90;;;;;;5076086;28;20063;-70
2023/05/12 07:56:32;;;;;;;43.10;25.08;;;14.90;99.90;;;;;;5093160;28;20044;-70
2023/05/12 07:58:58;;;;;;;46.55;26.27;;;;;;;;;;5092718;28;20036;-70
2023/05/12 08:01:24;;;;;;;42.05;25.15;;;;;;;;;;5092670;28;20043;-70
2023/05/12 08:03:50;;;;;;;54.88;25.73;;;;;;;;;;5075762;28;20044;-70
2023/05/12 08:06:17;;;;;;;44.58;25.63;;;;;;;;;;5075743;28;20455;-70
2023/05/12 08:08:43;;;;;;;42.88;25.33;;;15.60;99.90;;;;;;5092844;28;20055;-71
2023/05/12 08:11:09;;;;;;;47.30;26.05;;;;;;;;;;5092596;28;20040;-70
2023/05/12 08:13:36;;;;;;;45.58;26.52;;;14.80;99.90;;;;;;5092477;28;20123;-71
2023/05/12 08:16:02;;;;;;;43.45;24.75;;;;;;;;;;5092491;28;20043;-70
2023/05/12 08:18:28;;;;;;;41.05;26.70;;;;;;;;;;5092453;28;20169;-71
2023/05/12 08:20:55;;;;;;;43.40;25.92;;;;;;;;;;5092738;28;20063;-70
2023/05/12 08:23:21;;;;;;;37.42;24.40;;;;;;;;;;5092015;28;20039;-70
2023/05/12 08:25:47;;;;;;;40.63;25.73;;;;;;;;;;5092201;28;20051;-70
2023/05/12 08:28:13;;;;;;;39.75;25.38;;;;;;;;;;5093544;28;20124;-70
2023/05/12 08:30:40;;;;;;;39.10;25.27;;;15.30;99.90;;;;;;5126539;27;20090;-71
2023/05/12 08:33:06;;;;;;;40.72;25.17;;;;;;;;;;5075536;28;20040;-71
2023/05/12 08:35:32;;;;;;;39.58;26.65;;;;;;;;;;5092265;28;20126;-71
2023/05/12 08:37:58;;;;;;;41.60;25.98;;;;;;;;;;5092375;28;20062;-71
2023/05/12 08:40:25;;;;;;;42.33;24.58;;;;;;;;;;5092324;28;20115;-71
2023/05/12 08:43:06;;;;;;;40.80;25.70;;;15.60;99.90;;;;;;5092108;28;20127;-71
2023/05/12 08:45:32;;;;;;;38.92;25.42;;;;;;;;;;5092153;28;20047;-71
2023/05/12 08:47:59;;;;;;;40.47;26.55;;;15.80;99.90;;;;;;5075291;28;20079;-71
2023/05/12 08:50:27;;;;;;;39.70;26.52;;;15.90;99.90;;;;;;5092000;28;20039;-71
2023/05/12 08:52:53;;;;;;;36.75;25.15;;;;;;;;;;5092000;28;20044;-70
2023/05/12 08:55:20;;;;;;;39.25;25.88;;;15.40;99.90;;;;;;5091758;28;20048;-71
2023/05/12 08:57:47;;;;;;;40.05;26.80;;;16.20;99.90;;;;;;5091980;28;20055;-71
2023/05/12 09:00:15;;;;;;;36.38;25.55;;;;;;;;;;5092154;28;20123;-71
2023/05/12 09:02:42;;;;;;;40.95;25.38;;;;;;;;;;5092114;28;20189;-71
2023/05/12 09:05:09;;;;;;;38.30;26.13;;;16.80;99.90;;;;;;5075468;28;20036;-71
2023/05/12 09:07:38;;;;;;;35.05;25.58;;;16.60;99.90;;;;;;5075066;28;20047;-70
2023/05/12 09:10:08;;;;;;;32.53;23.58;;;17.60;99.90;;;;;;5091948;28;20036;-71
2023/05/12 09:12:36;;;;;;;34.28;24.42;;;16.90;99.90;;;;;;5091967;28;20460;-71
2023/05/12 09:15:07;;;;;;;33.20;24.02;;;17.10;99.90;;;;;;5126278;27;20107;-71
2023/05/12 09:17:34;;;;;;;32.88;24.50;;;17.00;99.90;;;;;;5091888;28;20036;-71
2023/05/12 09:20:01;;;;;;;35.83;24.67;;;;;;;;;;5092017;28;20403;-71
2023/05/12 09:22:32;;;;;;;30.13;22.80;;;;;;;;;;5075191;28;20117;-70
2023/05/12 09:24:58;;;;;;;31.20;22.23;;;;;;;;;;5091764;28;20050;-71
2023/05/12 09:27:28;;;;;;;29.00;21.08;;;;;;;;;;5091903;28;20044;-71
2023/05/12 09:29:54;;;;;;;30.65;22.15;;;;;;;;;;5074991;28;20083;-71
2023/05/12 09:32:33;;;;;;;28.77;21.60;;;17.30;99.90;;;;;;5091580;28;20545;-71
2023/05/12 09:35:05;;;;;;;31.35;21.20;;;17.40;99.90;;;;;;5093336;28;20506;-71
2023/05/12 09:37:32;;;;;;;34.10;23.13;;;17.60;99.90;;;;;;5095782;28;20036;-70
2023/05/12 09:40:02;;;;;;;32.42;23.17;;;17.80;99.90;;;;;;5095474;28;20540;-71
2023/05/12 09:42:29;;;;;;;33.42;21.85;;;17.80;99.90;;;;;;5095393;28;20043;-71
2023/05/12 09:45:08;;;;;;;35.28;23.38;;;18.40;99.90;;;;;;5095655;28;20055;-71
2023/05/12 09:47:35;;;;;;;30.77;22.65;;;18.00;99.90;;;;;;5095285;28;20054;-71
2023/05/12 09:50:02;;;;;;;30.52;21.40;;;18.00;99.90;;;;;;5095183;28;20487;-71
2023/05/12 09:52:29;;;;;;;32.20;22.15;;;;;;;;;;5095404;28;20074;-71
2023/05/12 09:54:55;;;;;;;28.15;20.67;;;;;;;;;;5095184;28;20101;-71
2023/05/12 09:57:24;;;;;;;26.83;19.73;;;;;;;;;;5112090;28;20475;-71
2023/05/12 09:59:51;;;;;;;26.10;19.80;;;18.90;99.90;;;;;;5095410;28;20075;-71
2023/05/12 10:02:17;;;;;;;27.33;20.27;;;18.70;99.90;;;;;;5095046;28;20058;-71
2023/05/12 10:04:51;;;;;;;26.20;19.00;;;19.00;99.90;;;;;;5095329;28;20394;-71
2023/05/12 10:07:21;;;;;;;25.08;18.23;;;19.10;99.90;;;;;;5094863;28;20101;-71
2023/05/12 10:09:48;;;;;;;22.17;16.60;;;19.10;99.90;;;;;;5078035;28;20047;-71
2023/05/12 10:12:15;;;;;;;18.90;15.32;;;19.30;99.90;;;;;;5077755;28;20495;-71
2023/05/12 10:14:42;;;;;;;18.77;14.80;;;;;;;;;;5094776;28;20044;-71
2023/05/12 10:17:09;;;;;;;19.15;14.70;;;19.60;99.90;;;;;;5077934;28;20040;-71
2023/05/12 10:19:35;;;;;;;17.20;13.20;;;;;;;;;;5094997;28;20047;-71
2023/05/12 10:22:02;;;;;;;20.10;15.48;;;19.60;99.90;;;;;;5094614;28;20086;-71
2023/05/12 10:24:28;;;;;;;20.60;15.63;;;;;;;;;;5094646;28;20036;-71
2023/05/12 10:26:58;;;;;;;21.00;14.95;;;;;;;;;;5077612;28;20040;-71
2023/05/12 10:29:28;;;;;;;19.88;15.25;;;20.20;99.90;;;;;;5094620;28;20071;-71
2023/05/12 10:31:56;;;;;;;21.48;15.57;;;19.50;99.90;;;;;;5094316;28;20040;-71
2023/05/12 10:34:22;;;;;;;19.80;14.45;;;19.80;99.90;;;;;;5094550;28;20069;-71
2023/05/12 10:36:51;;;;;;;21.80;14.65;;;19.90;99.90;;;;;;5094339;28;20032;-71
2023/05/12 10:39:17;;;;;;;19.02;14.52;;;;;;;;;;5094525;28;20047;-71
2023/05/12 10:41:42;;;;;;;20.40;13.95;;;20.40;99.90;;;;;;5094124;28;20093;-71
2023/05/12 10:44:12;;;;;;;17.80;14.75;;;;;;;;;;5094226;28;20036;-71
2023/05/12 10:46:38;;;;;;;21.50;16.45;;;21.20;99.90;;;;;;5076965;28;20061;-71
2023/05/12 10:49:08;;;;;;;21.38;16.27;;;21.10;99.90;;;;;;5094397;28;20044;-71
2023/05/12 10:51:43;;;;;;;24.73;17.05;;;20.70;99.90;;;;;;5093963;28;20066;-71
2023/05/12 10:54:11;;;;;;;19.20;16.13;;;20.80;99.90;;;;;;5127988;27;20147;-71
2023/05/12 10:56:37;;;;;;;18.13;14.55;;;20.80;99.90;;;;;;5094188;28;20054;-71
2023/05/12 10:59:20;;;;;;;21.33;16.98;;;21.30;99.90;;;;;;5093974;28;20422;-71
2023/05/12 11:02:00;;;;;;;21.70;16.70;;;20.70;99.90;;;;;;5093842;28;20048;-71
2023/05/12 11:04:51;;;;;;;27.98;17.25;;;21.30;99.90;;;;;;5076946;28;20040;-71
2023/05/12 11:07:22;;;;;;;25.05;17.83;;;20.90;99.90;;;;;;5093753;28;20071;-71
2023/05/12 11:09:48;;;;;;;23.77;18.58;;;;;;;;;;5076924;28;20071;-71
2023/05/12 11:12:14;;;;;;;22.10;16.83;;;19.80;99.90;;;;;;5111298;27;20123;-72
2023/05/12 11:14:42;;;;;;;25.30;17.48;;;20.60;99.90;;;;;;5094869;28;20090;-71
2023/05/12 11:17:08;;;;;;;39.17;17.80;;;21.10;99.90;;;;;;5077106;28;20093;-71
2023/05/12 11:19:35;;;;;;;22.10;17.17;;;20.90;99.90;;;;;;5093811;28;20093;-71
2023/05/12 11:22:06;;;;;;;19.40;15.65;;;20.70;99.90;;;;;;5076489;28;20040;-71
2023/05/12 11:24:32;;;;;;;19.60;15.63;;;21.50;99.90;;;;;;5093602;28;20101;-71
2023/05/12 11:26:58;;;;;;;22.27;15.75;;;21.20;99.90;;;;;;5093486;28;20083;-71
2023/05/12 11:29:24;;;;;;;23.02;14.73;;;;;;;;;;5093591;28;20044;-71
2023/05/12 11:31:50;;;;;;;18.83;13.63;;;21.80;99.90;;;;;;5093338;28;20109;-71
2023/05/12 11:34:21;;;;;;;20.13;14.02;;;21.60;99.90;;;;;;5093381;28;20067;-71
2023/05/12 11:36:47;;;;;;;17.27;13.77;;;21.10;99.90;;;;;;5093612;28;20048;-71
2023/05/12 11:39:17;;;;;;;15.70;12.90;;;21.20;99.90;;;;;;5093332;28;20050;-71
2023/05/12 11:41:43;;;;;;;20.85;12.80;;;20.30;99.90;;;;;;5093176;28;20101;-71
2023/05/12 11:44:28;;;;;;;17.05;12.95;;;20.90;99.90;;;;;;5093304;28;20482;-70
2023/05/12 11:47:00;;;;;;;14.73;12.48;;;22.00;99.90;;;;;;5075992;28;20036;-71
2023/05/12 11:49:28;;;;;;;16.38;12.02;;;21.10;99.90;;;;;;5093599;28;20421;-71
2023/05/12 11:51:55;;;;;;;19.35;12.77;;;21.10;99.90;;;;;;5076063;28;20379;-71
2023/05/12 11:54:21;;;;;;;15.50;11.98;;;21.40;99.90;;;;;;5092908;28;20051;-71
2023/05/12 11:56:52;;;;;;;18.10;11.23;;;21.50;99.90;;;;;;5092615;28;20067;-70
2023/05/12 11:59:26;;;;;;;17.90;12.35;;;21.90;99.90;;;;;;5093135;28;20063;-70
2023/05/12 12:01:52;;;;;;;16.45;11.13;;;21.90;99.90;;;;;;5093132;28;20077;-71
2023/05/12 12:04:18;;;;;;;16.02;11.60;;;21.60;99.90;;;;;;5092812;28;20558;-70
2023/05/12 12:06:44;;;;;;;14.02;11.75;;;22.50;99.90;;;;;;5109613;28;20032;-71
2023/05/12 12:09:11;;;;;;;17.17;12.77;;;;;;;;;;5092725;28;20043;-71
2023/05/12 12:11:37;;;;;;;17.83;12.27;;;;;;;;;;5075998;28;20032;-70
2023/05/12 12:14:03;;;;;;;21.23;12.70;;;21.90;99.90;;;;;;5092620;28;20036;-70
2023/05/12 12:16:30;;;;;;;17.65;13.15;;;21.60;99.90;;;;;;5092622;28;20072;-71
2023/05/12 12:18:57;;;;;;;16.60;12.48;;;23.00;99.90;;;;;;5092827;28;20071;-71
2023/05/12 12:21:25;;;;;;;18.77;13.32;;;22.40;99.90;;;;;;5075783;28;20028;-72
2023/05/12 12:23:51;;;;;;;18.60;13.73;;;21.90;99.90;;;;;;5092701;28;20415;-72
2023/05/12 12:26:20;;;;;;;20.33;12.60;;;22.40;99.90;;;;;;5109521;28;20044;-72
2023/05/12 12:28:46;;;;;;;17.92;13.70;;;22.40;99.90;;;;;;5092882;28;20082;-72
2023/05/12 12:31:13;;;;;;;17.23;12.82;;;21.80;99.90;;;;;;5092614;28;20036;-72
2023/05/12 12:33:38;;;;;;;19.05;13.20;;;23.10;99.90;;;;;;5092291;28;20047;-72
2023/05/12 12:36:05;;;;;;;15.98;12.25;;;23.10;99.90;;;;;;5092268;28;20412;-72
2023/05/12 12:38:31;;;;;;;16.42;12.95;;;22.90;99.90;;;;;;5092252;28;20472;-72
2023/05/12 12:40:57;;;;;;;18.50;13.55;;;22.20;99.90;;;;;;5092242;28;20040;-73
2023/05/12 12:43:22;;;;;;;14.23;12.52;;;23.10;99.90;;;;;;5075149;28;20044;-73
2023/05/12 12:45:48;;;;;;;19.35;13.25;;;22.20;99.90;;;;;;5092443;28;20050;-73
2023/05/12 12:48:14;;;;;;;18.98;12.73;;;23.10;99.90;;;;;;5092035;28;20498;-73
2023/05/12 12:50:40;;;;;;;19.10;12.40;;;;;;;;;;5092024;28;20054;-73
2023/05/12 12:53:08;;;;;;;14.35;12.07;;;;;;;;;;5092222;28;20380;-73
2023/05/12 12:55:33;;;;;;;20.48;13.05;;;22.30;99.90;;;;;;5091891;28;20048;-73
2023/05/12 12:57:59;;;;;;;26.38;12.55;;;;;;;;;;5092168;28;20043;-73
2023/05/12 13:00:26;;;;;;;14.80;11.85;;;21.60;99.90;;;;;;5092052;28;20094;-73
2023/05/12 13:02:52;;;;;;;15.60;12.00;;;21.80;99.90;;;;;;5075269;28;20483;-71
2023/05/12 13:05:18;;;;;;;15.02;11.52;;;;;;;;;;5091772;28;20050;-72
2023/05/12 13:07:43;;;;;;;18.75;12.75;;;22.50;99.90;;;;;;5108974;28;20044;-73
2023/05/12 13:10:10;;;;;;;17.10;12.25;;;22.80;99.90;;;;;;5095835;28;20047;-73
2023/05/12 13:12:37;;;;;;;18.77;12.25;;;;;;;;;;5096166;28;20399;-73
2023/05/12 13:15:03;;;;;;;15.63;11.80;;;23.20;99.90;;;;;;5095983;28;20040;-73
2023/05/12 13:17:29;;;;;;;18.20;12.27;;;;;;;;;;5079246;28;20047;-71
2023/05/12 13:19:55;;;;;;;17.65;13.43;;;22.90;99.90;;;;;;5079254;28;20379;-71
2023/05/12 13:22:21;;;;;;;15.07;11.85;;;;;;;;;;5095873;28;20043;-71
2023/05/12 13:24:47;;;;;;;15.90;11.85;;;21.50;99.90;;;;;;5095750;28;20055;-68
2023/05/12 13:27:13;;;;;;;13.65;10.88;;;23.20;99.90;;;;;;5096024;28;20036;-71
2023/05/12 13:29:41;;;;;;;15.85;11.27;;;;;;;;;;5095486;28;20484;-71
2023/05/12 13:32:07;;;;;;;16.52;11.45;;;;;;;;;;5078785;28;20487;-68
2023/05/12 13:34:33;;;;;;;13.40;11.52;;;23.60;99.90;;;;;;5095643;28;20089;-71
2023/05/12 13:36:59;;;;;;;15.00;10.15;;;23.10;99.90;;;;;;5095358;28;20040;-69